sensor_id;sensor_type;location;lat;lon;timestamp;P1;durP1;ratioP1;P2;durP2;ratioP2
54201;SDS011;40108;53.152;5.844;2023-03-31T08:58:50;9.20;;;3.40;;
54201;SDS011;40108;53.152;5.844;2023-03-31T09:06:32;12.82;;;4.70;;
54201;SDS011;40108;53.152;5.844;2023-03-31T09:09:21;11.55;;;4.00;;
54201;SDS011;40108;53.152;5.844;2023-03-31T09:11:57;10.68;;;4.40;;
54201;SDS011;40108;53.152;5.844;2023-03-31T09:14:31;16.55;;;4.70;;
54201;SDS011;40108;53.152;5.844;2023-03-31T09:22:33;10.85;;;3.90;;
54201;SDS011;40108;53.152;5.844;2023-03-31T09:25:10;8.07;;;3.28;;
54201;SDS011;40108;53.152;5.844;2023-03-31T09:27:45;8.05;;;2.97;;
54201;SDS011;40108;53.152;5.844;2023-03-31T09:30:14;4.95;;;2.85;;
54201;SDS011;40108;53.152;5.844;2023-03-31T09:32:51;6.18;;;2.40;;
54201;SDS011;40108;53.152;5.844;2023-03-31T09:35:27;7.78;;;1.98;;
54201;SDS011;40108;53.152;5.844;2023-03-31T09:37:57;7.47;;;2.17;;
54201;SDS011;40108;53.152;5.844;2023-03-31T09:40:24;6.93;;;2.13;;
54201;SDS011;40108;53.152;5.844;2023-03-31T09:45:24;6.93;;;2.53;;
54201;SDS011;40108;53.152;5.844;2023-03-31T09:47:51;7.47;;;2.53;;
54201;SDS011;40108;53.152;5.844;2023-03-31T09:50:20;7.38;;;3.03;;
54201;SDS011;40108;53.152;5.844;2023-03-31T09:52:50;9.80;;;2.83;;
54201;SDS011;40108;53.152;5.844;2023-03-31T09:58:05;5.97;;;2.75;;
54201;SDS011;40108;53.152;5.844;2023-03-31T10:00:32;5.57;;;2.60;;
54201;SDS011;40108;53.152;5.844;2023-03-31T10:03:02;11.43;;;3.60;;
54201;SDS011;40108;53.152;5.844;2023-03-31T10:05:36;16.48;;;8.73;;
54201;SDS011;40108;53.152;5.844;2023-03-31T10:10:36;10.23;;;3.92;;
54201;SDS011;40108;53.152;5.844;2023-03-31T10:13:06;8.70;;;3.75;;
54201;SDS011;40108;53.152;5.844;2023-03-31T10:15:37;12.48;;;3.75;;
54201;SDS011;40108;53.152;5.844;2023-03-31T10:18:03;8.15;;;3.47;;
54201;SDS011;40108;53.152;5.844;2023-03-31T10:23:01;13.40;;;4.25;;
54201;SDS011;40108;53.152;5.844;2023-03-31T10:25:29;15.43;;;4.43;;
54201;SDS011;40108;53.152;5.844;2023-03-31T10:27:57;12.65;;;4.07;;
54201;SDS011;40108;53.152;5.844;2023-03-31T10:30:27;11.60;;;3.42;;
54201;SDS011;40108;53.152;5.844;2023-03-31T10:32:59;12.98;;;4.25;;
54201;SDS011;40108;53.152;5.844;2023-03-31T10:35:33;14.48;;;3.58;;
54201;SDS011;40108;53.152;5.844;2023-03-31T10:38:11;13.18;;;3.72;;
54201;SDS011;40108;53.152;5.844;2023-03-31T10:40:40;13.18;;;3.53;;
54201;SDS011;40108;53.152;5.844;2023-03-31T10:43:25;9.80;;;2.55;;
54201;SDS011;40108;53.152;5.844;2023-03-31T10:46:18;10.25;;;2.92;;
54201;SDS011;40108;53.152;5.844;2023-03-31T10:48:44;11.35;;;3.22;;
54201;SDS011;40108;53.152;5.844;2023-03-31T11:31:08;7.75;;;2.45;;
54201;SDS011;40108;53.152;5.844;2023-03-31T11:41:53;7.65;;;2.40;;
54201;SDS011;40108;53.152;5.844;2023-03-31T11:44:22;15.93;;;3.33;;
54201;SDS011;40108;53.152;5.844;2023-03-31T11:46:53;12.38;;;2.97;;
54201;SDS011;40108;53.152;5.844;2023-03-31T11:49:25;8.90;;;2.47;;
54201;SDS011;40108;53.152;5.844;2023-03-31T11:52:05;11.93;;;2.67;;
54201;SDS011;40108;53.152;5.844;2023-03-31T11:54:45;13.10;;;2.80;;
54201;SDS011;40108;53.152;5.844;2023-03-31T11:57:15;7.80;;;2.13;;
54201;SDS011;40108;53.152;5.844;2023-03-31T11:59:47;8.45;;;2.30;;
54201;SDS011;40108;53.152;5.844;2023-03-31T12:02:38;15.18;;;2.70;;
54201;SDS011;40108;53.152;5.844;2023-03-31T12:05:10;11.25;;;2.80;;
54201;SDS011;40108;53.152;5.844;2023-03-31T12:07:46;9.20;;;2.50;;
54201;SDS011;40108;53.152;5.844;2023-03-31T12:10:32;11.10;;;2.90;;
54201;SDS011;40108;53.152;5.844;2023-03-31T12:16:09;14.52;;;3.50;;
54201;SDS011;40108;53.152;5.844;2023-03-31T12:19:01;13.85;;;3.30;;
54201;SDS011;40108;53.152;5.844;2023-03-31T12:21:29;16.50;;;4.15;;
54201;SDS011;40108;53.152;5.844;2023-03-31T12:23:57;16.05;;;3.90;;
54201;SDS011;40108;53.152;5.844;2023-03-31T12:26:29;13.75;;;3.38;;
54201;SDS011;40108;53.152;5.844;2023-03-31T12:29:31;17.38;;;3.30;;
54201;SDS011;40108;53.152;5.844;2023-03-31T12:32:02;15.90;;;3.50;;
54201;SDS011;40108;53.152;5.844;2023-03-31T12:34:32;12.45;;;3.95;;
54201;SDS011;40108;53.152;5.844;2023-03-31T12:37:08;15.27;;;4.25;;
54201;SDS011;40108;53.152;5.844;2023-03-31T12:43:20;18.33;;;3.45;;
54201;SDS011;40108;53.152;5.844;2023-03-31T12:56:20;15.60;;;2.80;;
54201;SDS011;40108;53.152;5.844;2023-03-31T12:58:45;12.73;;;2.45;;
54201;SDS011;40108;53.152;5.844;2023-03-31T13:01:16;12.18;;;2.83;;
54201;SDS011;40108;53.152;5.844;2023-03-31T13:03:46;11.65;;;2.55;;
54201;SDS011;40108;53.152;5.844;2023-03-31T13:14:01;10.25;;;2.15;;
54201;SDS011;40108;53.152;5.844;2023-03-31T13:16:48;7.38;;;1.70;;
54201;SDS011;40108;53.152;5.844;2023-03-31T13:19:29;8.23;;;1.70;;
54201;SDS011;40108;53.152;5.844;2023-03-31T13:22:03;7.88;;;1.92;;
54201;SDS011;40108;53.152;5.844;2023-03-31T13:24:30;7.18;;;1.80;;
54201;SDS011;40108;53.152;5.844;2023-03-31T13:26:58;6.40;;;1.23;;
54201;SDS011;40108;53.152;5.844;2023-03-31T13:29:43;6.18;;;1.15;;
54201;SDS011;40108;53.152;5.844;2023-03-31T13:32:26;9.50;;;1.77;;
54201;SDS011;40108;53.152;5.844;2023-03-31T13:48:35;8.38;;;1.90;;
54201;SDS011;40108;53.152;5.844;2023-03-31T13:51:14;6.88;;;1.70;;
54201;SDS011;40108;53.152;5.844;2023-03-31T13:56:54;9.35;;;1.60;;
54201;SDS011;40108;53.152;5.844;2023-03-31T14:05:27;6.97;;;1.48;;
54201;SDS011;40108;53.152;5.844;2023-03-31T14:08:10;8.30;;;1.50;;
54201;SDS011;40108;53.152;5.844;2023-03-31T14:10:44;6.20;;;1.10;;
54201;SDS011;40108;53.152;5.844;2023-03-31T14:15:37;4.93;;;1.10;;
54201;SDS011;40108;53.152;5.844;2023-03-31T14:18:13;7.38;;;1.42;;
54201;SDS011;40108;53.152;5.844;2023-03-31T14:23:18;5.15;;;1.10;;
54201;SDS011;40108;53.152;5.844;2023-03-31T14:28:56;32.13;;;3.90;;
54201;SDS011;40108;53.152;5.844;2023-03-31T14:31:40;6.47;;;1.10;;
54201;SDS011;40108;53.152;5.844;2023-03-31T14:37:29;5.28;;;1.23;;
54201;SDS011;40108;53.152;5.844;2023-03-31T14:39:55;6.80;;;1.17;;
54201;SDS011;40108;53.152;5.844;2023-03-31T14:44:54;6.47;;;1.30;;
54201;SDS011;40108;53.152;5.844;2023-03-31T14:47:22;5.20;;;1.25;;
54201;SDS011;40108;53.152;5.844;2023-03-31T14:50:04;7.05;;;1.55;;
54201;SDS011;40108;53.152;5.844;2023-03-31T14:52:38;6.82;;;1.58;;
54201;SDS011;40108;53.152;5.844;2023-03-31T14:55:13;5.32;;;1.33;;
54201;SDS011;40108;53.152;5.844;2023-03-31T14:57:40;5.10;;;1.10;;
54201;SDS011;40108;53.152;5.844;2023-03-31T15:00:10;4.32;;;1.13;;
54201;SDS011;40108;53.152;5.844;2023-03-31T15:02:40;3.25;;;1.10;;
54201;SDS011;40108;53.152;5.844;2023-03-31T15:05:08;6.25;;;1.30;;
54201;SDS011;40108;53.152;5.844;2023-03-31T15:07:44;3.97;;;1.00;;
54201;SDS011;40108;53.152;5.844;2023-03-31T15:10:15;5.88;;;1.30;;
54201;SDS011;40108;53.152;5.844;2023-03-31T15:12:45;6.32;;;1.25;;
54201;SDS011;40108;53.152;5.844;2023-03-31T15:15:13;4.55;;;1.10;;
54201;SDS011;40108;53.152;5.844;2023-03-31T15:17:41;5.30;;;1.25;;
54201;SDS011;40108;53.152;5.844;2023-03-31T15:22:48;5.43;;;1.35;;
54201;SDS011;40108;53.152;5.844;2023-03-31T15:25:14;6.18;;;1.50;;
54201;SDS011;40108;53.152;5.844;2023-03-31T15:27:46;9.07;;;2.00;;
54201;SDS011;40108;53.152;5.844;2023-03-31T15:32:47;7.47;;;1.63;;
54201;SDS011;40108;53.152;5.844;2023-03-31T15:35:24;6.35;;;1.70;;
54201;SDS011;40108;53.152;5.844;2023-03-31T15:37:53;6.50;;;1.52;;
54201;SDS011;40108;53.152;5.844;2023-03-31T15:43:04;8.90;;;2.38;;
54201;SDS011;40108;53.152;5.844;2023-03-31T15:45:52;7.63;;;1.90;;
54201;SDS011;40108;53.152;5.844;2023-03-31T15:50:45;10.32;;;2.40;;
54201;SDS011;40108;53.152;5.844;2023-03-31T15:53:22;9.95;;;3.63;;
54201;SDS011;40108;53.152;5.844;2023-03-31T15:55:53;14.15;;;4.60;;
54201;SDS011;40108;53.152;5.844;2023-03-31T15:58:22;11.50;;;3.13;;
54201;SDS011;40108;53.152;5.844;2023-03-31T16:01:08;10.95;;;3.83;;
54201;SDS011;40108;53.152;5.844;2023-03-31T16:03:35;13.23;;;5.25;;
54201;SDS011;40108;53.152;5.844;2023-03-31T16:06:18;9.63;;;2.83;;
54201;SDS011;40108;53.152;5.844;2023-03-31T16:08:58;7.05;;;2.28;;
54201;SDS011;40108;53.152;5.844;2023-03-31T16:14:14;7.00;;;1.42;;
54201;SDS011;40108;53.152;5.844;2023-03-31T16:16:44;6.60;;;1.90;;
54201;SDS011;40108;53.152;5.844;2023-03-31T16:21:41;8.55;;;1.98;;
54201;SDS011;40108;53.152;5.844;2023-03-31T16:24:08;9.13;;;2.20;;
54201;SDS011;40108;53.152;5.844;2023-03-31T16:26:35;7.65;;;2.20;;
54201;SDS011;40108;53.152;5.844;2023-03-31T16:29:01;9.27;;;2.80;;
54201;SDS011;40108;53.152;5.844;2023-03-31T16:31:38;11.30;;;3.20;;
54201;SDS011;40108;53.152;5.844;2023-03-31T16:34:06;6.07;;;2.00;;
54201;SDS011;40108;53.152;5.844;2023-03-31T16:36:33;7.90;;;2.10;;
54201;SDS011;40108;53.152;5.844;2023-03-31T16:38:59;7.80;;;2.25;;
54201;SDS011;40108;53.152;5.844;2023-03-31T16:41:29;12.48;;;5.35;;
54201;SDS011;40108;53.152;5.844;2023-03-31T16:43:57;12.07;;;4.93;;
54201;SDS011;40108;53.152;5.844;2023-03-31T16:46:22;7.20;;;3.50;;
54201;SDS011;40108;53.152;5.844;2023-03-31T16:48:49;7.78;;;2.97;;
54201;SDS011;40108;53.152;5.844;2023-03-31T16:51:15;9.45;;;3.28;;
54201;SDS011;40108;53.152;5.844;2023-03-31T16:53:42;11.63;;;3.03;;
54201;SDS011;40108;53.152;5.844;2023-03-31T16:56:09;8.23;;;3.08;;
54201;SDS011;40108;53.152;5.844;2023-03-31T16:58:36;12.35;;;3.67;;
54201;SDS011;40108;53.152;5.844;2023-03-31T17:01:02;11.65;;;4.65;;
54201;SDS011;40108;53.152;5.844;2023-03-31T17:03:30;9.82;;;3.65;;
54201;SDS011;40108;53.152;5.844;2023-03-31T17:05:57;8.70;;;3.33;;
54201;SDS011;40108;53.152;5.844;2023-03-31T17:08:28;10.60;;;2.95;;
54201;SDS011;40108;53.152;5.844;2023-03-31T17:10:55;10.40;;;5.40;;
54201;SDS011;40108;53.152;5.844;2023-03-31T17:13:24;10.48;;;4.53;;
54201;SDS011;40108;53.152;5.844;2023-03-31T17:15:50;8.30;;;3.45;;
54201;SDS011;40108;53.152;5.844;2023-03-31T17:18:17;10.02;;;3.67;;
54201;SDS011;40108;53.152;5.844;2023-03-31T17:20:43;9.50;;;4.40;;
54201;SDS011;40108;53.152;5.844;2023-03-31T17:23:09;6.70;;;2.85;;
54201;SDS011;40108;53.152;5.844;2023-03-31T17:25:35;4.80;;;1.73;;
54201;SDS011;40108;53.152;5.844;2023-03-31T17:28:02;4.32;;;1.00;;
54201;SDS011;40108;53.152;5.844;2023-03-31T17:30:28;8.52;;;2.28;;
54201;SDS011;40108;53.152;5.844;2023-03-31T17:32:55;7.35;;;2.20;;
54201;SDS011;40108;53.152;5.844;2023-03-31T17:35:21;4.60;;;1.40;;
54201;SDS011;40108;53.152;5.844;2023-03-31T17:37:47;5.68;;;1.45;;
54201;SDS011;40108;53.152;5.844;2023-03-31T17:40:15;4.55;;;2.28;;
54201;SDS011;40108;53.152;5.844;2023-03-31T17:42:41;3.67;;;2.70;;
54201;SDS011;40108;53.152;5.844;2023-03-31T17:45:08;4.55;;;2.70;;
54201;SDS011;40108;53.152;5.844;2023-03-31T17:47:35;8.07;;;3.95;;
54201;SDS011;40108;53.152;5.844;2023-03-31T17:50:02;12.73;;;8.95;;
54201;SDS011;40108;53.152;5.844;2023-03-31T17:52:27;14.27;;;8.88;;
54201;SDS011;40108;53.152;5.844;2023-03-31T17:54:53;11.23;;;8.00;;
54201;SDS011;40108;53.152;5.844;2023-03-31T17:57:21;9.52;;;4.30;;
54201;SDS011;40108;53.152;5.844;2023-03-31T17:59:47;7.88;;;3.42;;
54201;SDS011;40108;53.152;5.844;2023-03-31T18:02:13;7.43;;;3.22;;
54201;SDS011;40108;53.152;5.844;2023-03-31T18:04:39;5.40;;;2.50;;
54201;SDS011;40108;53.152;5.844;2023-03-31T18:07:05;5.20;;;3.50;;
54201;SDS011;40108;53.152;5.844;2023-03-31T18:09:31;7.40;;;3.10;;
54201;SDS011;40108;53.152;5.844;2023-03-31T18:11:58;7.85;;;3.25;;
54201;SDS011;40108;53.152;5.844;2023-03-31T18:14:24;9.65;;;5.35;;
54201;SDS011;40108;53.152;5.844;2023-03-31T18:16:50;14.93;;;7.82;;
54201;SDS011;40108;53.152;5.844;2023-03-31T18:19:17;16.38;;;7.68;;
54201;SDS011;40108;53.152;5.844;2023-03-31T18:21:43;11.05;;;5.75;;
54201;SDS011;40108;53.152;5.844;2023-03-31T18:24:08;6.95;;;3.30;;
54201;SDS011;40108;53.152;5.844;2023-03-31T18:26:34;5.93;;;2.20;;
54201;SDS011;40108;53.152;5.844;2023-03-31T18:29:00;6.82;;;2.80;;
54201;SDS011;40108;53.152;5.844;2023-03-31T18:31:26;4.95;;;2.25;;
54201;SDS011;40108;53.152;5.844;2023-03-31T18:33:52;5.80;;;2.60;;
54201;SDS011;40108;53.152;5.844;2023-03-31T18:36:19;10.95;;;4.13;;
54201;SDS011;40108;53.152;5.844;2023-03-31T18:38:47;17.27;;;5.80;;
54201;SDS011;40108;53.152;5.844;2023-03-31T18:41:14;9.55;;;4.28;;
54201;SDS011;40108;53.152;5.844;2023-03-31T18:43:41;23.70;;;6.22;;
54201;SDS011;40108;53.152;5.844;2023-03-31T18:46:08;10.45;;;4.88;;
54201;SDS011;40108;53.152;5.844;2023-03-31T18:48:35;9.30;;;5.05;;
54201;SDS011;40108;53.152;5.844;2023-03-31T18:51:01;13.93;;;5.68;;
54201;SDS011;40108;53.152;5.844;2023-03-31T18:53:28;14.15;;;5.78;;
54201;SDS011;40108;53.152;5.844;2023-03-31T18:55:55;10.00;;;5.05;;
54201;SDS011;40108;53.152;5.844;2023-03-31T18:58:23;8.52;;;5.05;;
54201;SDS011;40108;53.152;5.844;2023-03-31T19:00:50;11.45;;;5.90;;
54201;SDS011;40108;53.152;5.844;2023-03-31T19:03:16;12.77;;;6.88;;
54201;SDS011;40108;53.152;5.844;2023-03-31T19:05:42;12.35;;;6.80;;
54201;SDS011;40108;53.152;5.844;2023-03-31T19:08:08;9.52;;;6.00;;
54201;SDS011;40108;53.152;5.844;2023-03-31T19:10:33;10.60;;;6.32;;
54201;SDS011;40108;53.152;5.844;2023-03-31T19:13:00;11.57;;;7.15;;
54201;SDS011;40108;53.152;5.844;2023-03-31T19:15:26;8.95;;;5.60;;
54201;SDS011;40108;53.152;5.844;2023-03-31T19:17:52;9.63;;;6.28;;
54201;SDS011;40108;53.152;5.844;2023-03-31T19:20:18;8.43;;;5.82;;
54201;SDS011;40108;53.152;5.844;2023-03-31T19:22:45;12.13;;;7.03;;
54201;SDS011;40108;53.152;5.844;2023-03-31T19:25:13;12.90;;;6.43;;
54201;SDS011;40108;53.152;5.844;2023-03-31T19:27:40;12.40;;;7.53;;
54201;SDS011;40108;53.152;5.844;2023-03-31T19:30:07;13.27;;;7.55;;
54201;SDS011;40108;53.152;5.844;2023-03-31T19:32:42;14.30;;;9.35;;
54201;SDS011;40108;53.152;5.844;2023-03-31T19:35:08;16.10;;;11.50;;
54201;SDS011;40108;53.152;5.844;2023-03-31T19:37:35;19.63;;;14.13;;
54201;SDS011;40108;53.152;5.844;2023-03-31T19:40:03;15.75;;;12.45;;
54201;SDS011;40108;53.152;5.844;2023-03-31T19:42:29;17.55;;;10.15;;
54201;SDS011;40108;53.152;5.844;2023-03-31T19:44:56;19.88;;;10.68;;
54201;SDS011;40108;53.152;5.844;2023-03-31T19:47:22;17.65;;;9.43;;
54201;SDS011;40108;53.152;5.844;2023-03-31T19:49:48;15.60;;;9.38;;
54201;SDS011;40108;53.152;5.844;2023-03-31T19:52:14;20.75;;;9.10;;
54201;SDS011;40108;53.152;5.844;2023-03-31T19:54:39;14.77;;;8.68;;
54201;SDS011;40108;53.152;5.844;2023-03-31T19:57:06;15.68;;;7.78;;
54201;SDS011;40108;53.152;5.844;2023-03-31T19:59:33;14.82;;;9.15;;
54201;SDS011;40108;53.152;5.844;2023-03-31T20:01:59;13.38;;;8.02;;
54201;SDS011;40108;53.152;5.844;2023-03-31T20:04:28;14.98;;;8.82;;
54201;SDS011;40108;53.152;5.844;2023-03-31T20:06:54;16.80;;;9.35;;
54201;SDS011;40108;53.152;5.844;2023-03-31T20:09:20;16.08;;;9.02;;
54201;SDS011;40108;53.152;5.844;2023-03-31T20:11:46;10.68;;;7.82;;
54201;SDS011;40108;53.152;5.844;2023-03-31T20:14:12;10.00;;;7.13;;
54201;SDS011;40108;53.152;5.844;2023-03-31T20:16:39;8.95;;;6.78;;
54201;SDS011;40108;53.152;5.844;2023-03-31T20:19:05;11.25;;;7.28;;
54201;SDS011;40108;53.152;5.844;2023-03-31T20:21:35;13.23;;;8.88;;
54201;SDS011;40108;53.152;5.844;2023-03-31T20:24:03;14.07;;;9.35;;
54201;SDS011;40108;53.152;5.844;2023-03-31T20:26:30;16.77;;;9.50;;
54201;SDS011;40108;53.152;5.844;2023-03-31T20:28:58;12.10;;;9.02;;
54201;SDS011;40108;53.152;5.844;2023-03-31T20:31:29;10.82;;;8.35;;
54201;SDS011;40108;53.152;5.844;2023-03-31T20:33:56;15.68;;;9.98;;
54201;SDS011;40108;53.152;5.844;2023-03-31T20:36:23;10.93;;;7.63;;
54201;SDS011;40108;53.152;5.844;2023-03-31T20:38:53;13.52;;;7.78;;
54201;SDS011;40108;53.152;5.844;2023-03-31T20:41:19;10.90;;;8.23;;
54201;SDS011;40108;53.152;5.844;2023-03-31T20:43:47;12.10;;;7.10;;
54201;SDS011;40108;53.152;5.844;2023-03-31T20:46:14;12.52;;;7.13;;
54201;SDS011;40108;53.152;5.844;2023-03-31T20:48:41;14.70;;;8.93;;
54201;SDS011;40108;53.152;5.844;2023-03-31T20:51:10;10.52;;;6.90;;
54201;SDS011;40108;53.152;5.844;2023-03-31T20:53:41;10.60;;;7.30;;
54201;SDS011;40108;53.152;5.844;2023-03-31T20:56:09;8.40;;;7.45;;
54201;SDS011;40108;53.152;5.844;2023-03-31T20:58:36;10.13;;;6.90;;
54201;SDS011;40108;53.152;5.844;2023-03-31T21:01:02;10.27;;;6.78;;
54201;SDS011;40108;53.152;5.844;2023-03-31T21:03:28;8.85;;;6.90;;
54201;SDS011;40108;53.152;5.844;2023-03-31T21:05:55;7.75;;;6.80;;
54201;SDS011;40108;53.152;5.844;2023-03-31T21:08:20;8.48;;;7.18;;
54201;SDS011;40108;53.152;5.844;2023-03-31T21:10:46;11.50;;;7.35;;
54201;SDS011;40108;53.152;5.844;2023-03-31T21:13:13;9.13;;;7.05;;
54201;SDS011;40108;53.152;5.844;2023-03-31T21:15:40;8.32;;;7.13;;
54201;SDS011;40108;53.152;5.844;2023-03-31T21:18:11;9.03;;;7.90;;
54201;SDS011;40108;53.152;5.844;2023-03-31T21:20:39;9.18;;;7.55;;
54201;SDS011;40108;53.152;5.844;2023-03-31T21:23:04;12.38;;;8.32;;
54201;SDS011;40108;53.152;5.844;2023-03-31T21:25:30;11.00;;;8.30;;
54201;SDS011;40108;53.152;5.844;2023-03-31T21:27:56;11.77;;;8.90;;
54201;SDS011;40108;53.152;5.844;2023-03-31T21:30:22;14.80;;;8.55;;
54201;SDS011;40108;53.152;5.844;2023-03-31T21:32:48;10.57;;;7.80;;
54201;SDS011;40108;53.152;5.844;2023-03-31T21:35:14;13.30;;;8.80;;
54201;SDS011;40108;53.152;5.844;2023-03-31T21:37:39;11.63;;;7.88;;
54201;SDS011;40108;53.152;5.844;2023-03-31T21:40:05;15.50;;;9.25;;
54201;SDS011;40108;53.152;5.844;2023-03-31T21:42:33;9.43;;;7.78;;
54201;SDS011;40108;53.152;5.844;2023-03-31T21:44:59;16.40;;;9.50;;
54201;SDS011;40108;53.152;5.844;2023-03-31T21:47:25;10.38;;;8.02;;
54201;SDS011;40108;53.152;5.844;2023-03-31T21:49:51;10.70;;;8.20;;
54201;SDS011;40108;53.152;5.844;2023-03-31T21:52:17;10.10;;;8.90;;
54201;SDS011;40108;53.152;5.844;2023-03-31T21:54:45;10.02;;;8.38;;
54201;SDS011;40108;53.152;5.844;2023-03-31T21:57:11;9.55;;;8.50;;
54201;SDS011;40108;53.152;5.844;2023-03-31T21:59:37;9.27;;;8.27;;
54201;SDS011;40108;53.152;5.844;2023-03-31T22:02:03;9.25;;;8.32;;
54201;SDS011;40108;53.152;5.844;2023-03-31T22:04:29;9.43;;;8.50;;
54201;SDS011;40108;53.152;5.844;2023-03-31T22:06:55;10.88;;;8.60;;
54201;SDS011;40108;53.152;5.844;2023-03-31T22:09:21;12.57;;;8.82;;
54201;SDS011;40108;53.152;5.844;2023-03-31T22:11:47;10.38;;;8.73;;
54201;SDS011;40108;53.152;5.844;2023-03-31T22:14:13;10.52;;;9.43;;
54201;SDS011;40108;53.152;5.844;2023-03-31T22:16:39;10.80;;;9.38;;
54201;SDS011;40108;53.152;5.844;2023-03-31T22:19:05;11.25;;;8.75;;
54201;SDS011;40108;53.152;5.844;2023-03-31T22:21:31;9.48;;;8.48;;
54201;SDS011;40108;53.152;5.844;2023-03-31T22:23:58;12.55;;;9.43;;
54201;SDS011;40108;53.152;5.844;2023-03-31T22:26:26;10.82;;;8.57;;
54201;SDS011;40108;53.152;5.844;2023-03-31T22:28:53;10.55;;;8.82;;
54201;SDS011;40108;53.152;5.844;2023-03-31T22:31:20;12.25;;;9.13;;
54201;SDS011;40108;53.152;5.844;2023-03-31T22:33:46;11.88;;;9.27;;
54201;SDS011;40108;53.152;5.844;2023-03-31T22:36:12;13.32;;;9.25;;
54201;SDS011;40108;53.152;5.844;2023-03-31T22:38:38;12.10;;;9.38;;
54201;SDS011;40108;53.152;5.844;2023-03-31T22:41:03;10.90;;;9.77;;
54201;SDS011;40108;53.152;5.844;2023-03-31T22:43:31;12.13;;;9.73;;
54201;SDS011;40108;53.152;5.844;2023-03-31T22:46:01;12.95;;;9.50;;
54201;SDS011;40108;53.152;5.844;2023-03-31T22:48:31;13.65;;;9.52;;
54201;SDS011;40108;53.152;5.844;2023-03-31T22:51:01;15.32;;;10.60;;
54201;SDS011;40108;53.152;5.844;2023-03-31T22:53:30;11.85;;;9.95;;
54201;SDS011;40108;53.152;5.844;2023-03-31T22:55:56;13.80;;;10.25;;
54201;SDS011;40108;53.152;5.844;2023-03-31T22:58:31;12.20;;;10.02;;
54201;SDS011;40108;53.152;5.844;2023-03-31T23:00:57;14.52;;;9.52;;
54201;SDS011;40108;53.152;5.844;2023-03-31T23:03:24;13.82;;;9.90;;
54201;SDS011;40108;53.152;5.844;2023-03-31T23:05:50;11.65;;;10.05;;
54201;SDS011;40108;53.152;5.844;2023-03-31T23:08:15;13.10;;;9.35;;
54201;SDS011;40108;53.152;5.844;2023-03-31T23:10:41;10.45;;;9.35;;
54201;SDS011;40108;53.152;5.844;2023-03-31T23:13:07;10.40;;;8.75;;
54201;SDS011;40108;53.152;5.844;2023-03-31T23:15:33;12.07;;;8.98;;
54201;SDS011;40108;53.152;5.844;2023-03-31T23:17:59;11.35;;;9.02;;
54201;SDS011;40108;53.152;5.844;2023-03-31T23:20:25;11.25;;;9.40;;
54201;SDS011;40108;53.152;5.844;2023-03-31T23:22:51;13.55;;;9.98;;
54201;SDS011;40108;53.152;5.844;2023-03-31T23:25:18;12.98;;;9.85;;
54201;SDS011;40108;53.152;5.844;2023-03-31T23:27:43;11.48;;;9.70;;
54201;SDS011;40108;53.152;5.844;2023-03-31T23:30:09;12.95;;;9.85;;
54201;SDS011;40108;53.152;5.844;2023-03-31T23:32:35;11.77;;;9.63;;
54201;SDS011;40108;53.152;5.844;2023-03-31T23:35:01;13.75;;;10.93;;
54201;SDS011;40108;53.152;5.844;2023-03-31T23:37:27;12.27;;;10.13;;
54201;SDS011;40108;53.152;5.844;2023-03-31T23:39:53;12.63;;;10.45;;
54201;SDS011;40108;53.152;5.844;2023-03-31T23:42:18;12.32;;;10.90;;
54201;SDS011;40108;53.152;5.844;2023-03-31T23:44:45;14.15;;;10.27;;
54201;SDS011;40108;53.152;5.844;2023-03-31T23:47:11;11.75;;;10.45;;
54201;SDS011;40108;53.152;5.844;2023-03-31T23:49:36;11.98;;;10.73;;
54201;SDS011;40108;53.152;5.844;2023-03-31T23:52:02;15.20;;;10.73;;
54201;SDS011;40108;53.152;5.844;2023-03-31T23:54:28;12.80;;;10.50;;
54201;SDS011;40108;53.152;5.844;2023-03-31T23:56:54;12.63;;;10.73;;
54201;SDS011;40108;53.152;5.844;2023-03-31T23:59:20;11.27;;;9.93;;
